Hamilton, Ohio
Current Conditions -  °F | °C
As of 11:53 PM on Monday 26 Jan 2015 (Local Time) from KHAO Reporting Station
Overcast Overcast  
Wind Chill: 21°   Ceiling: 2600
Heat Index: 21°   Visibility: 10mi
Dew Point: 14°   Wind: 3mph
Humidity: 74%   Direction: 90°E
Pressure: 29.98"   Gusts: NA
Location:  39.4°N, 84.56°W
Report Text: KHAO 270453Z AUTO 09003KT 10SM OVC026 M06/M10 A2998 RMK AO2 SLP161 T10611100 410221083
Loading
Personal Weather Stations






























Interactive Weather Map New forecast layout! Learn more

10-Day Weather Forecast

Advertisements
Track Severe Weather on mobile